sensor_id;sensor_type;location;lat;lon;timestamp;P1;durP1;ratioP1;P2;durP2;ratioP2
37701;SDS011;23548;51.196;6.838;2022-08-01T00:00:23;10.88;;;6.78;;
37701;SDS011;23548;51.196;6.838;2022-08-01T00:02:49;12.38;;;7.00;;
37701;SDS011;23548;51.196;6.838;2022-08-01T00:05:14;11.95;;;7.30;;
37701;SDS011;23548;51.196;6.838;2022-08-01T00:07:40;9.88;;;6.45;;
37701;SDS011;23548;51.196;6.838;2022-08-01T00:10:07;10.38;;;7.30;;
37701;SDS011;23548;51.196;6.838;2022-08-01T00:12:36;7.32;;;6.63;;
37701;SDS011;23548;51.196;6.838;2022-08-01T00:15:03;9.05;;;6.07;;
37701;SDS011;23548;51.196;6.838;2022-08-01T00:17:30;8.98;;;5.80;;
37701;SDS011;23548;51.196;6.838;2022-08-01T00:19:56;11.25;;;6.28;;
37701;SDS011;23548;51.196;6.838;2022-08-01T00:22:22;10.43;;;6.25;;
37701;SDS011;23548;51.196;6.838;2022-08-01T00:24:48;9.13;;;6.13;;
37701;SDS011;23548;51.196;6.838;2022-08-01T00:27:13;7.68;;;5.85;;
37701;SDS011;23548;51.196;6.838;2022-08-01T00:29:39;10.77;;;6.35;;
37701;SDS011;23548;51.196;6.838;2022-08-01T00:32:05;11.02;;;6.15;;
37701;SDS011;23548;51.196;6.838;2022-08-01T00:34:31;10.73;;;6.25;;
37701;SDS011;23548;51.196;6.838;2022-08-01T00:36:57;9.70;;;6.55;;
37701;SDS011;23548;51.196;6.838;2022-08-01T00:39:22;9.45;;;6.70;;
37701;SDS011;23548;51.196;6.838;2022-08-01T00:41:48;12.77;;;6.82;;
37701;SDS011;23548;51.196;6.838;2022-08-01T00:44:14;9.75;;;6.95;;
37701;SDS011;23548;51.196;6.838;2022-08-01T00:46:40;8.23;;;6.57;;
37701;SDS011;23548;51.196;6.838;2022-08-01T00:49:05;9.18;;;6.05;;
37701;SDS011;23548;51.196;6.838;2022-08-01T00:51:31;10.50;;;6.82;;
37701;SDS011;23548;51.196;6.838;2022-08-01T00:53:58;9.80;;;6.70;;
37701;SDS011;23548;51.196;6.838;2022-08-01T00:56:25;7.95;;;6.82;;
37701;SDS011;23548;51.196;6.838;2022-08-01T00:58:53;9.65;;;6.55;;
37701;SDS011;23548;51.196;6.838;2022-08-01T01:01:20;8.30;;;6.13;;
37701;SDS011;23548;51.196;6.838;2022-08-01T01:03:50;9.93;;;7.05;;
37701;SDS011;23548;51.196;6.838;2022-08-01T01:09:08;8.30;;;7.00;;
37701;SDS011;23548;51.196;6.838;2022-08-01T01:12:01;10.50;;;7.18;;
37701;SDS011;23548;51.196;6.838;2022-08-01T01:14:37;9.55;;;6.18;;
37701;SDS011;23548;51.196;6.838;2022-08-01T01:17:11;9.60;;;6.43;;
37701;SDS011;23548;51.196;6.838;2022-08-01T01:19:42;7.65;;;6.45;;
37701;SDS011;23548;51.196;6.838;2022-08-01T01:30:58;9.02;;;7.05;;
37701;SDS011;23548;51.196;6.838;2022-08-01T01:36:49;10.52;;;7.28;;
37701;SDS011;23548;51.196;6.838;2022-08-01T01:39:17;9.38;;;6.55;;
37701;SDS011;23548;51.196;6.838;2022-08-01T01:41:45;9.38;;;6.93;;
37701;SDS011;23548;51.196;6.838;2022-08-01T01:44:13;9.07;;;6.50;;
37701;SDS011;23548;51.196;6.838;2022-08-01T01:46:41;9.52;;;6.40;;
37701;SDS011;23548;51.196;6.838;2022-08-01T01:49:08;9.27;;;6.45;;
37701;SDS011;23548;51.196;6.838;2022-08-01T01:51:36;10.38;;;6.90;;
37701;SDS011;23548;51.196;6.838;2022-08-01T01:54:04;9.75;;;6.57;;
37701;SDS011;23548;51.196;6.838;2022-08-01T01:56:31;11.18;;;7.18;;
37701;SDS011;23548;51.196;6.838;2022-08-01T01:59:00;14.15;;;7.40;;
37701;SDS011;23548;51.196;6.838;2022-08-01T02:01:28;10.18;;;6.68;;
37701;SDS011;23548;51.196;6.838;2022-08-01T02:03:56;11.80;;;7.22;;
37701;SDS011;23548;51.196;6.838;2022-08-01T02:06:23;11.00;;;6.90;;
37701;SDS011;23548;51.196;6.838;2022-08-01T02:08:51;7.82;;;6.40;;
37701;SDS011;23548;51.196;6.838;2022-08-01T02:11:21;7.72;;;6.13;;
37701;SDS011;23548;51.196;6.838;2022-08-01T02:13:52;10.60;;;7.10;;
37701;SDS011;23548;51.196;6.838;2022-08-01T02:16:21;12.65;;;7.10;;
37701;SDS011;23548;51.196;6.838;2022-08-01T02:18:49;8.40;;;6.53;;
37701;SDS011;23548;51.196;6.838;2022-08-01T02:21:16;9.30;;;6.80;;
37701;SDS011;23548;51.196;6.838;2022-08-01T02:27:01;10.27;;;6.80;;
37701;SDS011;23548;51.196;6.838;2022-08-01T02:29:34;8.65;;;6.78;;
37701;SDS011;23548;51.196;6.838;2022-08-01T02:32:06;11.35;;;7.40;;
37701;SDS011;23548;51.196;6.838;2022-08-01T02:34:35;10.93;;;7.20;;
37701;SDS011;23548;51.196;6.838;2022-08-01T02:37:01;10.85;;;7.22;;
37701;SDS011;23548;51.196;6.838;2022-08-01T02:39:29;14.70;;;7.50;;
37701;SDS011;23548;51.196;6.838;2022-08-01T02:41:57;11.93;;;7.57;;
37701;SDS011;23548;51.196;6.838;2022-08-01T02:44:31;11.18;;;7.57;;
37701;SDS011;23548;51.196;6.838;2022-08-01T02:47:00;13.40;;;8.20;;
37701;SDS011;23548;51.196;6.838;2022-08-01T02:49:37;10.68;;;7.10;;
37701;SDS011;23548;51.196;6.838;2022-08-01T02:52:08;13.38;;;7.97;;
37701;SDS011;23548;51.196;6.838;2022-08-01T02:54:37;10.60;;;7.90;;
37701;SDS011;23548;51.196;6.838;2022-08-01T02:57:05;12.20;;;7.55;;
37701;SDS011;23548;51.196;6.838;2022-08-01T02:59:33;11.85;;;7.80;;
37701;SDS011;23548;51.196;6.838;2022-08-01T03:02:02;10.63;;;8.00;;
37701;SDS011;23548;51.196;6.838;2022-08-01T03:04:30;16.52;;;7.97;;
37701;SDS011;23548;51.196;6.838;2022-08-01T03:06:58;15.07;;;7.97;;
37701;SDS011;23548;51.196;6.838;2022-08-01T03:09:27;14.80;;;7.65;;
37701;SDS011;23548;51.196;6.838;2022-08-01T03:11:57;11.65;;;8.88;;
37701;SDS011;23548;51.196;6.838;2022-08-01T03:14:26;13.88;;;8.00;;
37701;SDS011;23548;51.196;6.838;2022-08-01T03:16:53;14.38;;;8.55;;
37701;SDS011;23548;51.196;6.838;2022-08-01T03:19:22;18.95;;;8.60;;
37701;SDS011;23548;51.196;6.838;2022-08-01T03:21:49;12.27;;;8.25;;
37701;SDS011;23548;51.196;6.838;2022-08-01T03:24:17;11.05;;;8.15;;
37701;SDS011;23548;51.196;6.838;2022-08-01T03:26:44;12.43;;;8.52;;
37701;SDS011;23548;51.196;6.838;2022-08-01T03:29:12;13.43;;;9.43;;
37701;SDS011;23548;51.196;6.838;2022-08-01T03:31:43;15.80;;;8.48;;
37701;SDS011;23548;51.196;6.838;2022-08-01T03:34:10;14.35;;;8.98;;
37701;SDS011;23548;51.196;6.838;2022-08-01T03:36:39;18.92;;;12.50;;
37701;SDS011;23548;51.196;6.838;2022-08-01T03:39:28;23.83;;;11.57;;
37701;SDS011;23548;51.196;6.838;2022-08-01T03:41:59;17.40;;;11.50;;
37701;SDS011;23548;51.196;6.838;2022-08-01T03:44:33;18.65;;;11.50;;
37701;SDS011;23548;51.196;6.838;2022-08-01T03:47:04;18.50;;;11.88;;
37701;SDS011;23548;51.196;6.838;2022-08-01T03:49:35;22.20;;;14.30;;
37701;SDS011;23548;51.196;6.838;2022-08-01T03:52:06;22.17;;;14.98;;
37701;SDS011;23548;51.196;6.838;2022-08-01T03:54:33;21.50;;;16.05;;
37701;SDS011;23548;51.196;6.838;2022-08-01T03:57:02;25.45;;;15.93;;
37701;SDS011;23548;51.196;6.838;2022-08-01T03:59:30;18.80;;;14.38;;
37701;SDS011;23548;51.196;6.838;2022-08-01T04:01:57;21.73;;;15.75;;
37701;SDS011;23548;51.196;6.838;2022-08-01T04:04:23;20.52;;;15.38;;
37701;SDS011;23548;51.196;6.838;2022-08-01T04:06:50;20.95;;;14.63;;
37701;SDS011;23548;51.196;6.838;2022-08-01T04:09:19;25.63;;;14.75;;
37701;SDS011;23548;51.196;6.838;2022-08-01T04:11:46;24.55;;;16.02;;
37701;SDS011;23548;51.196;6.838;2022-08-01T04:14:12;25.40;;;16.40;;
37701;SDS011;23548;51.196;6.838;2022-08-01T04:16:38;20.08;;;14.50;;
37701;SDS011;23548;51.196;6.838;2022-08-01T04:19:04;19.27;;;15.75;;
37701;SDS011;23548;51.196;6.838;2022-08-01T04:21:32;20.90;;;16.70;;
37701;SDS011;23548;51.196;6.838;2022-08-01T04:24:01;25.88;;;16.98;;
37701;SDS011;23548;51.196;6.838;2022-08-01T04:26:30;25.35;;;17.63;;
37701;SDS011;23548;51.196;6.838;2022-08-01T04:29:00;24.17;;;16.58;;
37701;SDS011;23548;51.196;6.838;2022-08-01T04:31:27;27.20;;;18.73;;
37701;SDS011;23548;51.196;6.838;2022-08-01T04:33:55;24.77;;;17.60;;
37701;SDS011;23548;51.196;6.838;2022-08-01T04:36:22;30.10;;;20.08;;
37701;SDS011;23548;51.196;6.838;2022-08-01T04:38:50;26.98;;;19.98;;
37701;SDS011;23548;51.196;6.838;2022-08-01T04:41:25;31.52;;;19.77;;
37701;SDS011;23548;51.196;6.838;2022-08-01T04:43:52;31.85;;;20.50;;
37701;SDS011;23548;51.196;6.838;2022-08-01T04:46:19;30.52;;;20.35;;
37701;SDS011;23548;51.196;6.838;2022-08-01T04:48:46;33.63;;;20.48;;
37701;SDS011;23548;51.196;6.838;2022-08-01T04:51:16;27.20;;;19.50;;
37701;SDS011;23548;51.196;6.838;2022-08-01T04:53:43;28.10;;;20.20;;
37701;SDS011;23548;51.196;6.838;2022-08-01T04:56:10;29.17;;;20.77;;
37701;SDS011;23548;51.196;6.838;2022-08-01T04:58:39;28.65;;;19.70;;
37701;SDS011;23548;51.196;6.838;2022-08-01T05:01:05;25.17;;;19.15;;
37701;SDS011;23548;51.196;6.838;2022-08-01T05:03:31;31.88;;;19.35;;
37701;SDS011;23548;51.196;6.838;2022-08-01T05:05:58;25.55;;;19.48;;
37701;SDS011;23548;51.196;6.838;2022-08-01T05:08:23;30.85;;;19.63;;
37701;SDS011;23548;51.196;6.838;2022-08-01T05:10:49;32.05;;;20.30;;
37701;SDS011;23548;51.196;6.838;2022-08-01T05:13:15;31.10;;;20.88;;
37701;SDS011;23548;51.196;6.838;2022-08-01T05:15:41;27.83;;;19.98;;
37701;SDS011;23548;51.196;6.838;2022-08-01T05:18:06;28.30;;;18.90;;
37701;SDS011;23548;51.196;6.838;2022-08-01T05:20:33;24.90;;;19.25;;
37701;SDS011;23548;51.196;6.838;2022-08-01T05:22:59;29.08;;;19.70;;
37701;SDS011;23548;51.196;6.838;2022-08-01T05:25:25;25.15;;;17.55;;
37701;SDS011;23548;51.196;6.838;2022-08-01T05:27:50;27.85;;;18.33;;
37701;SDS011;23548;51.196;6.838;2022-08-01T05:30:16;27.23;;;17.60;;
37701;SDS011;23548;51.196;6.838;2022-08-01T05:32:42;22.88;;;17.77;;
37701;SDS011;23548;51.196;6.838;2022-08-01T05:35:08;27.05;;;18.23;;
37701;SDS011;23548;51.196;6.838;2022-08-01T05:37:34;24.95;;;17.75;;
37701;SDS011;23548;51.196;6.838;2022-08-01T05:40:00;26.75;;;17.73;;
37701;SDS011;23548;51.196;6.838;2022-08-01T05:42:26;26.48;;;18.05;;
37701;SDS011;23548;51.196;6.838;2022-08-01T05:44:51;25.00;;;17.08;;
37701;SDS011;23548;51.196;6.838;2022-08-01T05:47:17;26.95;;;17.38;;
37701;SDS011;23548;51.196;6.838;2022-08-01T05:49:43;22.13;;;16.00;;
37701;SDS011;23548;51.196;6.838;2022-08-01T05:52:10;26.08;;;15.32;;
37701;SDS011;23548;51.196;6.838;2022-08-01T05:54:36;22.90;;;15.77;;
37701;SDS011;23548;51.196;6.838;2022-08-01T05:57:02;21.98;;;16.27;;
37701;SDS011;23548;51.196;6.838;2022-08-01T05:59:28;24.30;;;17.42;;
37701;SDS011;23548;51.196;6.838;2022-08-01T06:01:54;24.80;;;17.25;;
37701;SDS011;23548;51.196;6.838;2022-08-01T06:04:20;27.55;;;17.67;;
37701;SDS011;23548;51.196;6.838;2022-08-01T06:06:46;24.55;;;16.88;;
37701;SDS011;23548;51.196;6.838;2022-08-01T06:09:12;24.17;;;17.75;;
37701;SDS011;23548;51.196;6.838;2022-08-01T06:11:38;24.33;;;17.65;;
37701;SDS011;23548;51.196;6.838;2022-08-01T06:14:03;20.48;;;16.73;;
37701;SDS011;23548;51.196;6.838;2022-08-01T06:16:30;22.45;;;17.35;;
37701;SDS011;23548;51.196;6.838;2022-08-01T06:18:55;23.13;;;17.45;;
37701;SDS011;23548;51.196;6.838;2022-08-01T06:21:21;23.00;;;16.60;;
37701;SDS011;23548;51.196;6.838;2022-08-01T06:23:47;21.58;;;16.05;;
37701;SDS011;23548;51.196;6.838;2022-08-01T06:26:12;23.63;;;18.13;;
37701;SDS011;23548;51.196;6.838;2022-08-01T06:28:38;23.70;;;16.58;;
37701;SDS011;23548;51.196;6.838;2022-08-01T06:31:04;22.05;;;17.08;;
37701;SDS011;23548;51.196;6.838;2022-08-01T06:33:30;20.80;;;16.42;;
37701;SDS011;23548;51.196;6.838;2022-08-01T06:35:56;26.92;;;16.52;;
37701;SDS011;23548;51.196;6.838;2022-08-01T06:38:22;23.48;;;16.70;;
37701;SDS011;23548;51.196;6.838;2022-08-01T06:40:49;23.50;;;16.38;;
37701;SDS011;23548;51.196;6.838;2022-08-01T06:43:15;26.58;;;16.90;;
37701;SDS011;23548;51.196;6.838;2022-08-01T06:45:41;26.40;;;16.83;;
37701;SDS011;23548;51.196;6.838;2022-08-01T06:48:07;22.20;;;16.90;;
37701;SDS011;23548;51.196;6.838;2022-08-01T06:50:33;25.40;;;16.77;;
37701;SDS011;23548;51.196;6.838;2022-08-01T06:53:00;24.00;;;16.70;;
37701;SDS011;23548;51.196;6.838;2022-08-01T06:55:26;24.92;;;16.88;;
37701;SDS011;23548;51.196;6.838;2022-08-01T06:57:52;24.73;;;16.65;;
37701;SDS011;23548;51.196;6.838;2022-08-01T07:00:19;21.25;;;15.93;;
37701;SDS011;23548;51.196;6.838;2022-08-01T07:02:47;21.20;;;14.95;;
37701;SDS011;23548;51.196;6.838;2022-08-01T07:05:17;17.48;;;13.25;;
37701;SDS011;23548;51.196;6.838;2022-08-01T07:07:43;17.50;;;12.30;;
37701;SDS011;23548;51.196;6.838;2022-08-01T07:10:09;14.55;;;11.90;;
37701;SDS011;23548;51.196;6.838;2022-08-01T07:12:35;15.48;;;11.07;;
37701;SDS011;23548;51.196;6.838;2022-08-01T07:15:06;14.25;;;11.15;;
37701;SDS011;23548;51.196;6.838;2022-08-01T07:17:36;12.15;;;9.88;;
37701;SDS011;23548;51.196;6.838;2022-08-01T07:20:03;12.15;;;10.52;;
37701;SDS011;23548;51.196;6.838;2022-08-01T07:22:29;16.15;;;10.48;;
37701;SDS011;23548;51.196;6.838;2022-08-01T07:24:54;11.02;;;9.82;;
37701;SDS011;23548;51.196;6.838;2022-08-01T07:27:20;12.00;;;8.80;;
37701;SDS011;23548;51.196;6.838;2022-08-01T07:29:46;11.40;;;8.45;;
37701;SDS011;23548;51.196;6.838;2022-08-01T07:32:12;9.45;;;7.88;;
37701;SDS011;23548;51.196;6.838;2022-08-01T07:34:37;8.10;;;6.63;;
37701;SDS011;23548;51.196;6.838;2022-08-01T07:37:03;9.52;;;7.28;;
37701;SDS011;23548;51.196;6.838;2022-08-01T07:39:29;10.32;;;7.10;;
37701;SDS011;23548;51.196;6.838;2022-08-01T07:41:54;9.23;;;7.65;;
37701;SDS011;23548;51.196;6.838;2022-08-01T07:44:20;8.75;;;6.53;;
37701;SDS011;23548;51.196;6.838;2022-08-01T07:46:46;12.65;;;6.70;;
37701;SDS011;23548;51.196;6.838;2022-08-01T07:49:12;8.82;;;7.82;;
37701;SDS011;23548;51.196;6.838;2022-08-01T07:51:37;8.75;;;6.45;;
37701;SDS011;23548;51.196;6.838;2022-08-01T07:54:03;8.57;;;6.35;;
37701;SDS011;23548;51.196;6.838;2022-08-01T07:56:29;8.38;;;6.40;;
37701;SDS011;23548;51.196;6.838;2022-08-01T07:58:54;9.15;;;7.43;;
37701;SDS011;23548;51.196;6.838;2022-08-01T08:01:20;8.32;;;7.22;;
37701;SDS011;23548;51.196;6.838;2022-08-01T08:03:46;9.43;;;6.90;;
37701;SDS011;23548;51.196;6.838;2022-08-01T08:06:12;7.55;;;6.53;;
37701;SDS011;23548;51.196;6.838;2022-08-01T08:08:38;9.82;;;8.00;;
37701;SDS011;23548;51.196;6.838;2022-08-01T08:11:04;11.57;;;8.70;;
37701;SDS011;23548;51.196;6.838;2022-08-01T08:13:30;10.25;;;8.38;;
37701;SDS011;23548;51.196;6.838;2022-08-01T08:15:55;12.50;;;9.02;;
37701;SDS011;23548;51.196;6.838;2022-08-01T08:18:23;10.05;;;8.63;;
37701;SDS011;23548;51.196;6.838;2022-08-01T08:20:49;13.98;;;8.48;;
37701;SDS011;23548;51.196;6.838;2022-08-01T08:23:14;11.38;;;9.07;;
37701;SDS011;23548;51.196;6.838;2022-08-01T08:25:59;12.55;;;8.00;;
37701;SDS011;23548;51.196;6.838;2022-08-01T08:28:25;9.73;;;7.53;;
37701;SDS011;23548;51.196;6.838;2022-08-01T08:30:50;9.70;;;7.53;;
37701;SDS011;23548;51.196;6.838;2022-08-01T08:33:18;7.40;;;5.47;;
37701;SDS011;23548;51.196;6.838;2022-08-01T08:35:43;8.82;;;5.93;;
37701;SDS011;23548;51.196;6.838;2022-08-01T08:38:09;10.45;;;6.60;;
37701;SDS011;23548;51.196;6.838;2022-08-01T08:40:36;6.88;;;6.05;;
37701;SDS011;23548;51.196;6.838;2022-08-01T08:43:04;8.27;;;6.38;;
37701;SDS011;23548;51.196;6.838;2022-08-01T08:45:30;8.52;;;6.70;;
37701;SDS011;23548;51.196;6.838;2022-08-01T08:47:57;6.75;;;5.13;;
37701;SDS011;23548;51.196;6.838;2022-08-01T08:50:23;8.43;;;5.03;;
37701;SDS011;23548;51.196;6.838;2022-08-01T08:52:51;7.72;;;5.70;;
37701;SDS011;23548;51.196;6.838;2022-08-01T08:55:19;8.45;;;6.03;;
37701;SDS011;23548;51.196;6.838;2022-08-01T08:57:45;6.15;;;4.85;;
37701;SDS011;23548;51.196;6.838;2022-08-01T09:00:13;8.85;;;5.05;;
37701;SDS011;23548;51.196;6.838;2022-08-01T09:02:41;4.78;;;4.20;;
37701;SDS011;23548;51.196;6.838;2022-08-01T09:05:08;4.63;;;3.72;;
37701;SDS011;23548;51.196;6.838;2022-08-01T09:07:34;8.95;;;4.20;;
37701;SDS011;23548;51.196;6.838;2022-08-01T09:10:00;5.20;;;4.50;;
37701;SDS011;23548;51.196;6.838;2022-08-01T09:12:26;5.82;;;4.50;;
37701;SDS011;23548;51.196;6.838;2022-08-01T09:14:52;5.55;;;4.18;;
37701;SDS011;23548;51.196;6.838;2022-08-01T09:17:19;5.97;;;3.50;;
37701;SDS011;23548;51.196;6.838;2022-08-01T09:19:49;6.60;;;4.22;;
37701;SDS011;23548;51.196;6.838;2022-08-01T09:22:20;13.02;;;4.45;;
37701;SDS011;23548;51.196;6.838;2022-08-01T09:25:09;4.35;;;3.75;;
37701;SDS011;23548;51.196;6.838;2022-08-01T09:27:35;4.35;;;3.85;;
37701;SDS011;23548;51.196;6.838;2022-08-01T09:30:11;5.35;;;4.15;;
37701;SDS011;23548;51.196;6.838;2022-08-01T09:33:00;6.95;;;4.22;;
37701;SDS011;23548;51.196;6.838;2022-08-01T09:35:31;8.50;;;4.03;;
37701;SDS011;23548;51.196;6.838;2022-08-01T09:38:21;5.68;;;3.75;;
37701;SDS011;23548;51.196;6.838;2022-08-01T09:40:55;5.57;;;3.67;;
37701;SDS011;23548;51.196;6.838;2022-08-01T09:43:23;4.50;;;3.83;;
37701;SDS011;23548;51.196;6.838;2022-08-01T09:45:51;5.82;;;3.42;;
37701;SDS011;23548;51.196;6.838;2022-08-01T09:48:17;5.05;;;3.50;;
37701;SDS011;23548;51.196;6.838;2022-08-01T09:50:48;5.57;;;3.65;;
37701;SDS011;23548;51.196;6.838;2022-08-01T09:53:15;5.30;;;3.15;;
37701;SDS011;23548;51.196;6.838;2022-08-01T09:55:42;4.70;;;3.83;;
37701;SDS011;23548;51.196;6.838;2022-08-01T09:58:09;5.55;;;3.92;;
37701;SDS011;23548;51.196;6.838;2022-08-01T10:00:37;5.45;;;3.90;;
37701;SDS011;23548;51.196;6.838;2022-08-01T10:03:20;6.10;;;3.97;;
37701;SDS011;23548;51.196;6.838;2022-08-01T10:05:47;5.55;;;4.25;;
37701;SDS011;23548;51.196;6.838;2022-08-01T10:08:14;5.55;;;3.80;;
37701;SDS011;23548;51.196;6.838;2022-08-01T10:10:39;4.43;;;4.03;;
37701;SDS011;23548;51.196;6.838;2022-08-01T10:13:06;7.60;;;4.47;;
37701;SDS011;23548;51.196;6.838;2022-08-01T10:15:33;4.03;;;3.63;;
37701;SDS011;23548;51.196;6.838;2022-08-01T10:18:01;6.47;;;4.03;;
37701;SDS011;23548;51.196;6.838;2022-08-01T10:20:31;4.43;;;3.88;;
37701;SDS011;23548;51.196;6.838;2022-08-01T10:23:00;7.05;;;4.00;;
37701;SDS011;23548;51.196;6.838;2022-08-01T10:25:28;5.82;;;3.78;;
37701;SDS011;23548;51.196;6.838;2022-08-01T10:27:59;4.07;;;3.67;;
37701;SDS011;23548;51.196;6.838;2022-08-01T10:30:26;5.00;;;3.97;;
37701;SDS011;23548;51.196;6.838;2022-08-01T10:32:52;4.30;;;3.40;;
37701;SDS011;23548;51.196;6.838;2022-08-01T10:35:18;4.68;;;4.20;;
37701;SDS011;23548;51.196;6.838;2022-08-01T10:37:45;4.90;;;3.53;;
37701;SDS011;23548;51.196;6.838;2022-08-01T10:40:14;3.00;;;2.70;;
37701;SDS011;23548;51.196;6.838;2022-08-01T10:42:41;2.63;;;2.42;;
37701;SDS011;23548;51.196;6.838;2022-08-01T10:45:11;3.10;;;2.42;;
37701;SDS011;23548;51.196;6.838;2022-08-01T10:47:48;4.90;;;2.55;;
37701;SDS011;23548;51.196;6.838;2022-08-01T10:50:24;3.88;;;3.10;;
37701;SDS011;23548;51.196;6.838;2022-08-01T10:58:26;3.90;;;3.08;;
37701;SDS011;23548;51.196;6.838;2022-08-01T11:01:19;4.15;;;2.45;;
37701;SDS011;23548;51.196;6.838;2022-08-01T11:06:28;2.10;;;1.90;;
37701;SDS011;23548;51.196;6.838;2022-08-01T11:09:00;3.33;;;2.58;;
37701;SDS011;23548;51.196;6.838;2022-08-01T11:11:30;3.25;;;2.17;;
37701;SDS011;23548;51.196;6.838;2022-08-01T11:16:38;3.95;;;2.00;;
37701;SDS011;23548;51.196;6.838;2022-08-01T11:19:06;3.97;;;2.08;;
37701;SDS011;23548;51.196;6.838;2022-08-01T11:22:20;2.45;;;1.83;;
37701;SDS011;23548;51.196;6.838;2022-08-01T11:27:19;2.38;;;2.17;;
37701;SDS011;23548;51.196;6.838;2022-08-01T11:35:14;2.17;;;1.85;;
37701;SDS011;23548;51.196;6.838;2022-08-01T11:37:40;2.90;;;2.20;;
37701;SDS011;23548;51.196;6.838;2022-08-01T11:40:16;3.25;;;2.60;;
37701;SDS011;23548;51.196;6.838;2022-08-01T11:42:45;5.45;;;2.28;;
37701;SDS011;23548;51.196;6.838;2022-08-01T11:45:12;2.13;;;1.83;;
37701;SDS011;23548;51.196;6.838;2022-08-01T11:50:30;2.80;;;1.15;;
37701;SDS011;23548;51.196;6.838;2022-08-01T11:53:07;1.80;;;1.55;;
37701;SDS011;23548;51.196;6.838;2022-08-01T11:55:33;1.92;;;1.65;;
37701;SDS011;23548;51.196;6.838;2022-08-01T11:58:03;3.50;;;1.45;;
37701;SDS011;23548;51.196;6.838;2022-08-01T12:00:31;1.92;;;1.55;;
37701;SDS011;23548;51.196;6.838;2022-08-01T12:02:58;2.25;;;1.80;;
37701;SDS011;23548;51.196;6.838;2022-08-01T12:05:27;2.45;;;1.73;;
37701;SDS011;23548;51.196;6.838;2022-08-01T12:07:54;2.13;;;1.35;;
37701;SDS011;23548;51.196;6.838;2022-08-01T12:10:22;2.67;;;1.40;;
37701;SDS011;23548;51.196;6.838;2022-08-01T12:12:54;2.05;;;1.67;;
37701;SDS011;23548;51.196;6.838;2022-08-01T12:15:24;2.20;;;1.90;;
37701;SDS011;23548;51.196;6.838;2022-08-01T12:17:56;2.22;;;1.80;;
37701;SDS011;23548;51.196;6.838;2022-08-01T12:20:24;3.50;;;2.30;;
37701;SDS011;23548;51.196;6.838;2022-08-01T12:23:05;2.97;;;2.35;;
37701;SDS011;23548;51.196;6.838;2022-08-01T12:25:32;2.70;;;1.92;;
37701;SDS011;23548;51.196;6.838;2022-08-01T12:27:59;3.95;;;1.92;;
37701;SDS011;23548;51.196;6.838;2022-08-01T12:30:26;2.55;;;1.80;;
37701;SDS011;23548;51.196;6.838;2022-08-01T12:32:53;2.60;;;2.00;;
37701;SDS011;23548;51.196;6.838;2022-08-01T12:35:24;2.70;;;1.83;;
37701;SDS011;23548;51.196;6.838;2022-08-01T12:37:55;1.65;;;1.55;;
37701;SDS011;23548;51.196;6.838;2022-08-01T12:40:28;2.92;;;1.70;;
37701;SDS011;23548;51.196;6.838;2022-08-01T12:42:59;3.95;;;1.50;;
37701;SDS011;23548;51.196;6.838;2022-08-01T12:45:28;1.60;;;1.50;;
37701;SDS011;23548;51.196;6.838;2022-08-01T12:48:00;3.55;;;1.40;;
37701;SDS011;23548;51.196;6.838;2022-08-01T12:50:30;2.55;;;1.42;;
37701;SDS011;23548;51.196;6.838;2022-08-01T12:52:57;1.48;;;1.38;;
37701;SDS011;23548;51.196;6.838;2022-08-01T12:55:24;3.53;;;1.60;;
37701;SDS011;23548;51.196;6.838;2022-08-01T12:58:10;2.80;;;1.38;;
37701;SDS011;23548;51.196;6.838;2022-08-01T13:00:38;1.73;;;1.40;;
37701;SDS011;23548;51.196;6.838;2022-08-01T13:03:09;2.03;;;1.40;;
37701;SDS011;23548;51.196;6.838;2022-08-01T13:08:13;1.73;;;1.63;;
37701;SDS011;23548;51.196;6.838;2022-08-01T13:10:41;1.85;;;1.70;;
37701;SDS011;23548;51.196;6.838;2022-08-01T13:13:08;1.95;;;1.58;;
37701;SDS011;23548;51.196;6.838;2022-08-01T13:15:35;3.28;;;1.70;;
37701;SDS011;23548;51.196;6.838;2022-08-01T13:21:29;2.75;;;1.90;;
37701;SDS011;23548;51.196;6.838;2022-08-01T13:24:04;3.50;;;1.92;;
37701;SDS011;23548;51.196;6.838;2022-08-01T13:32:00;2.30;;;1.90;;
37701;SDS011;23548;51.196;6.838;2022-08-01T13:34:42;3.90;;;1.60;;
37701;SDS011;23548;51.196;6.838;2022-08-01T13:37:08;3.30;;;1.65;;
37701;SDS011;23548;51.196;6.838;2022-08-01T13:39:34;2.00;;;1.73;;
37701;SDS011;23548;51.196;6.838;2022-08-01T13:42:06;2.88;;;1.55;;
37701;SDS011;23548;51.196;6.838;2022-08-01T13:44:32;2.47;;;1.48;;
37701;SDS011;23548;51.196;6.838;2022-08-01T13:46:58;2.58;;;1.88;;
37701;SDS011;23548;51.196;6.838;2022-08-01T13:49:24;1.77;;;1.50;;
37701;SDS011;23548;51.196;6.838;2022-08-01T13:51:50;1.80;;;1.67;;
37701;SDS011;23548;51.196;6.838;2022-08-01T13:54:16;2.20;;;1.75;;
37701;SDS011;23548;51.196;6.838;2022-08-01T13:56:42;1.75;;;1.52;;
37701;SDS011;23548;51.196;6.838;2022-08-01T13:59:07;2.88;;;1.48;;
37701;SDS011;23548;51.196;6.838;2022-08-01T14:01:33;2.55;;;1.65;;
37701;SDS011;23548;51.196;6.838;2022-08-01T14:04:00;3.15;;;2.10;;
37701;SDS011;23548;51.196;6.838;2022-08-01T14:06:26;3.15;;;1.50;;
37701;SDS011;23548;51.196;6.838;2022-08-01T14:08:52;3.30;;;1.70;;
37701;SDS011;23548;51.196;6.838;2022-08-01T14:11:18;1.85;;;1.70;;
37701;SDS011;23548;51.196;6.838;2022-08-01T14:13:44;2.70;;;2.15;;
37701;SDS011;23548;51.196;6.838;2022-08-01T14:16:10;3.20;;;2.38;;
37701;SDS011;23548;51.196;6.838;2022-08-01T14:18:36;2.40;;;2.20;;
37701;SDS011;23548;51.196;6.838;2022-08-01T14:21:02;3.63;;;2.50;;
37701;SDS011;23548;51.196;6.838;2022-08-01T14:23:28;3.92;;;1.80;;
37701;SDS011;23548;51.196;6.838;2022-08-01T14:25:54;2.67;;;2.13;;
37701;SDS011;23548;51.196;6.838;2022-08-01T14:28:20;3.45;;;2.00;;
37701;SDS011;23548;51.196;6.838;2022-08-01T14:30:46;4.10;;;1.98;;
37701;SDS011;23548;51.196;6.838;2022-08-01T14:33:12;4.07;;;2.00;;
37701;SDS011;23548;51.196;6.838;2022-08-01T14:35:38;3.83;;;2.10;;
37701;SDS011;23548;51.196;6.838;2022-08-01T14:38:04;3.72;;;2.10;;
37701;SDS011;23548;51.196;6.838;2022-08-01T14:40:30;2.70;;;2.50;;
37701;SDS011;23548;51.196;6.838;2022-08-01T14:42:56;3.42;;;2.35;;
37701;SDS011;23548;51.196;6.838;2022-08-01T14:45:22;2.83;;;2.40;;
37701;SDS011;23548;51.196;6.838;2022-08-01T14:47:48;4.05;;;2.50;;
37701;SDS011;23548;51.196;6.838;2022-08-01T14:50:14;3.60;;;2.58;;
37701;SDS011;23548;51.196;6.838;2022-08-01T14:52:41;3.38;;;2.72;;
37701;SDS011;23548;51.196;6.838;2022-08-01T14:55:08;2.78;;;2.20;;
37701;SDS011;23548;51.196;6.838;2022-08-01T14:57:35;3.35;;;2.10;;
37701;SDS011;23548;51.196;6.838;2022-08-01T15:00:06;3.08;;;2.40;;
37701;SDS011;23548;51.196;6.838;2022-08-01T15:02:37;4.30;;;2.10;;
37701;SDS011;23548;51.196;6.838;2022-08-01T15:05:03;3.63;;;2.25;;
37701;SDS011;23548;51.196;6.838;2022-08-01T15:07:30;3.30;;;2.15;;
37701;SDS011;23548;51.196;6.838;2022-08-01T15:09:56;3.28;;;2.30;;
37701;SDS011;23548;51.196;6.838;2022-08-01T15:12:22;2.80;;;2.30;;
37701;SDS011;23548;51.196;6.838;2022-08-01T15:14:47;4.47;;;2.33;;
37701;SDS011;23548;51.196;6.838;2022-08-01T15:17:23;3.88;;;2.88;;
37701;SDS011;23548;51.196;6.838;2022-08-01T15:19:52;3.13;;;2.55;;
37701;SDS011;23548;51.196;6.838;2022-08-01T15:22:19;4.43;;;2.95;;
37701;SDS011;23548;51.196;6.838;2022-08-01T15:24:46;4.38;;;3.15;;
37701;SDS011;23548;51.196;6.838;2022-08-01T15:27:13;3.97;;;2.88;;
37701;SDS011;23548;51.196;6.838;2022-08-01T15:29:38;4.85;;;3.38;;
37701;SDS011;23548;51.196;6.838;2022-08-01T15:32:04;3.75;;;3.45;;
37701;SDS011;23548;51.196;6.838;2022-08-01T15:34:31;3.67;;;3.30;;